Geeveston (forestry), Australia

8:07 PM AEST on April 23, 2017 (GMT +1000)
Geeveston petenjohn | | Change Station

Elev 167 ft 43.16 °S, 146.92 °E | Updated 12 seconds ago

Mostly Cloudy
Mostly Cloudy
54.3 °F
Feels Like 54.3 °F
N
0.0
Wind Variable Wind from NE
Gusts 0.0 mph

Today
High -- | Low -- °F
--% Chance of Precip.
Yesterday
High -- | Low -- °F
Precip. -- in
Pressure 30.27 in
Visibility 6.2 miles
Clouds Scattered Clouds 2300 ft
Scattered Clouds 3000 ft
Dew Point 50 °F
Humidity 84%
Rainfall 0.02 in
Snow Depth Not available.
6:53 AM 5:26 PM
Waning Crescent, 13% visible
METAR YMHB 231000Z 29001KT 9999 SCT023 SCT030 12/10 Q1025
Pressure 30.27 in
Visibility 6.2 miles
Clouds Scattered Clouds 2300 ft
Scattered Clouds 3000 ft
Dew Point 50 °F
Humidity 84%
Rainfall 0.02 in
Snow Depth Not available.
6:53 AM 5:26 PM
Waning Crescent, 13% visible
METAR YMHB 231000Z 29001KT 9999 SCT023 SCT030 12/10 Q1025

Get Severe Weather Alerts

Thanks for signing up!

Be on the lookout for a verification email in your inbox.

You'll start receiving the daily forecast at 8 AM.

×

10-Day Weather Forecast

×

Almanac

Astronomy

Apr. 23, 2017 Rise Set
Actual Time
Civil Twilight
Nautical Twilight
Astronomical Twilight
Moon
Length of Visible Light
Length of Day
Tomorrow will be .
, % of the Moon is Illuminated

Today's Extremes

Country Highs Country Lows

Community

WunderPhotos

WunderBlog® & News

Nearby

Air Quality

  Air Quality AQ Index Pollutant
Not available.

Snow Depth

Station Depth Elevation

Earthquake Activity

City Distance Mag. Time & Date
Minimum magnitude displayed is 2.5.

Coastal Water Temperatures

Place Temperature

Stations

Nearby Weather Stations

Station Location Temp. Windchill Dew Point Humidity Wind Precip. Elev Updated Type